createdAt,value
2022-10-01T00:02:17.092Z,16.10
2022-10-01T00:04:43.958Z,16.30
2022-10-01T00:07:14.406Z,16.00
2022-10-01T00:09:40.807Z,16.30
2022-10-01T00:12:07.612Z,15.90
2022-10-01T00:14:33.888Z,16.60
2022-10-01T00:17:00.804Z,15.10
2022-10-01T00:19:27.929Z,17.00
2022-10-01T00:21:55.024Z,16.80
2022-10-01T00:24:21.305Z,15.30
2022-10-01T00:26:47.779Z,15.50
2022-10-01T00:29:14.937Z,16.60
2022-10-01T00:31:41.602Z,15.30
2022-10-01T00:34:10.225Z,15.90
2022-10-01T00:36:36.992Z,17.30
2022-10-01T00:39:03.830Z,15.60
2022-10-01T00:41:32.131Z,15.50
2022-10-01T00:43:59.871Z,15.50
2022-10-01T00:46:36.466Z,15.70
2022-10-01T00:49:11.487Z,16.30
2022-10-01T00:51:40.577Z,16.30
2022-10-01T00:54:09.810Z,16.60
2022-10-01T00:56:36.504Z,15.60
2022-10-01T00:59:04.081Z,16.10
2022-10-01T01:01:30.580Z,16.20
2022-10-01T01:03:57.234Z,15.90
2022-10-01T01:06:23.872Z,15.30
2022-10-01T01:08:54.605Z,16.00
2022-10-01T01:11:32.688Z,15.60
2022-10-01T01:14:10.510Z,16.00
2022-10-01T01:16:39.716Z,16.10
2022-10-01T01:19:20.271Z,16.50
2022-10-01T01:21:51.721Z,16.50
2022-10-01T01:24:20.728Z,15.70
2022-10-01T01:26:47.793Z,16.70
2022-10-01T01:29:24.620Z,15.00
2022-10-01T01:31:52.438Z,15.80
2022-10-01T01:34:21.683Z,16.60
2022-10-01T01:36:53.783Z,16.20
2022-10-01T01:39:21.016Z,15.80
2022-10-01T01:41:49.702Z,16.20
2022-10-01T01:44:21.767Z,16.40
2022-10-01T01:46:48.942Z,16.00
2022-10-01T01:49:17.090Z,15.50
2022-10-01T01:51:47.810Z,17.10
2022-10-01T01:54:14.208Z,17.00
2022-10-01T01:56:41.438Z,16.90
2022-10-01T01:59:08.750Z,18.40
2022-10-01T02:01:42.293Z,14.80
2022-10-01T02:04:15.546Z,12.60
2022-10-01T02:06:52.960Z,13.30
2022-10-01T02:09:28.591Z,15.40
2022-10-01T02:12:07.516Z,14.90
2022-10-01T02:14:34.646Z,16.30
2022-10-01T02:17:04.888Z,16.40
2022-10-01T02:19:51.792Z,14.40
2022-10-01T02:24:50.909Z,13.90
2022-10-01T02:27:25.734Z,14.30
2022-10-01T02:29:54.930Z,14.40
2022-10-01T02:32:21.540Z,15.30
2022-10-01T02:34:49.125Z,15.90
2022-10-01T02:37:17.619Z,16.40
2022-10-01T02:39:44.719Z,16.90
2022-10-01T02:42:12.727Z,17.20
2022-10-01T02:44:42.056Z,16.60
2022-10-01T02:47:08.362Z,16.70
2022-10-01T02:49:35.566Z,17.90
2022-10-01T02:52:08.699Z,18.60
2022-10-01T02:54:35.031Z,17.50
2022-10-01T02:57:20.436Z,17.80
2022-10-01T02:59:47.035Z,18.70
2022-10-01T03:02:13.734Z,19.40
2022-10-01T03:04:40.823Z,19.00
2022-10-01T03:07:07.467Z,18.40
2022-10-01T03:09:34.607Z,17.20
2022-10-01T03:12:01.455Z,17.40
2022-10-01T03:14:28.375Z,17.80
2022-10-01T03:16:54.679Z,18.50
2022-10-01T03:19:20.996Z,18.40
2022-10-01T03:21:48.305Z,17.70
2022-10-01T03:24:14.917Z,19.40
2022-10-01T03:26:41.210Z,19.60
2022-10-01T03:29:07.908Z,19.20
2022-10-01T03:31:34.465Z,19.20
2022-10-01T03:34:01.388Z,18.40
2022-10-01T03:36:28.112Z,19.50
2022-10-01T03:38:55.894Z,18.40
2022-10-01T03:41:22.180Z,18.70
2022-10-01T03:43:48.483Z,18.10
2022-10-01T03:46:14.956Z,17.60
2022-10-01T03:48:41.468Z,17.90
2022-10-01T03:51:08.259Z,18.00
2022-10-01T03:53:34.639Z,17.60
2022-10-01T03:56:01.384Z,16.80
2022-10-01T03:58:27.864Z,17.60
2022-10-01T04:00:55.368Z,18.40
2022-10-01T04:03:22.060Z,18.60
2022-10-01T04:05:48.318Z,17.00
2022-10-01T04:08:15.038Z,17.60
2022-10-01T04:10:41.350Z,18.20
2022-10-01T04:13:08.210Z,17.10
2022-10-01T04:15:34.541Z,18.70
2022-10-01T04:18:04.951Z,17.70
2022-10-01T04:20:32.957Z,17.70
2022-10-01T04:22:59.879Z,17.80
2022-10-01T04:25:27.220Z,19.10
2022-10-01T04:27:56.172Z,17.50
2022-10-01T04:30:23.914Z,17.20
2022-10-01T04:32:50.334Z,17.70
2022-10-01T04:35:17.252Z,17.80
2022-10-01T04:37:44.913Z,17.00
2022-10-01T04:40:11.461Z,18.50
2022-10-01T04:42:38.499Z,17.30
2022-10-01T04:45:05.347Z,17.20
2022-10-01T04:47:35.605Z,17.40
2022-10-01T04:50:04.138Z,17.80
2022-10-01T04:52:30.569Z,17.00
2022-10-01T04:54:56.823Z,16.10
2022-10-01T04:57:23.434Z,17.50
2022-10-01T04:59:50.490Z,17.80
2022-10-01T05:02:17.689Z,18.00
2022-10-01T05:04:44.193Z,16.10
2022-10-01T05:07:10.601Z,17.90
2022-10-01T05:09:36.827Z,16.90
2022-10-01T05:12:03.205Z,17.60
2022-10-01T05:14:30.918Z,18.00
2022-10-01T05:16:57.710Z,17.90
2022-10-01T05:19:27.917Z,17.70
2022-10-01T05:21:55.752Z,18.10
2022-10-01T05:24:22.177Z,20.80
2022-10-01T05:26:49.101Z,19.20
2022-10-01T05:29:18.221Z,23.10
2022-10-01T05:31:44.884Z,22.40
2022-10-01T05:34:11.696Z,23.40
2022-10-01T05:36:38.230Z,24.10
2022-10-01T05:39:04.863Z,26.80
2022-10-01T05:41:32.010Z,24.70
2022-10-01T05:43:59.079Z,26.90
2022-10-01T05:46:26.417Z,26.40
2022-10-01T05:48:53.580Z,25.50
2022-10-01T05:51:21.123Z,24.40
2022-10-01T05:53:50.476Z,24.60
2022-10-01T05:56:17.123Z,23.90
2022-10-01T05:58:43.499Z,24.70
2022-10-01T06:01:09.905Z,24.80
2022-10-01T06:03:38.244Z,24.60
2022-10-01T06:06:05.055Z,24.30
2022-10-01T06:08:35.262Z,24.20
2022-10-01T06:11:01.943Z,23.60
2022-10-01T06:13:28.846Z,23.90
2022-10-01T06:15:55.687Z,24.10
2022-10-01T06:18:22.318Z,25.60
2022-10-01T06:20:48.654Z,26.20
2022-10-01T06:23:14.984Z,25.20
2022-10-01T06:25:43.061Z,24.70
2022-10-01T06:28:10.719Z,25.20
2022-10-01T06:30:38.044Z,24.90
2022-10-01T06:33:05.471Z,23.50
2022-10-01T06:37:59.055Z,23.00
2022-10-01T06:40:25.810Z,22.90
2022-10-01T06:42:56.094Z,22.60
2022-10-01T06:45:27.697Z,23.40
2022-10-01T06:47:56.616Z,22.40
2022-10-01T06:50:24.274Z,21.90
2022-10-01T06:52:51.225Z,22.20
2022-10-01T06:55:18.946Z,21.90
2022-10-01T06:57:45.826Z,20.80
2022-10-01T07:00:13.489Z,20.60
2022-10-01T07:02:40.583Z,21.50
2022-10-01T07:05:08.195Z,20.30
2022-10-01T07:07:36.699Z,19.00
2022-10-01T07:10:08.426Z,19.50
2022-10-01T07:12:36.084Z,17.60
2022-10-01T07:15:03.186Z,17.00
2022-10-01T07:17:29.671Z,16.90
2022-10-01T07:19:56.825Z,16.60
2022-10-01T07:22:24.689Z,16.80
2022-10-01T07:24:51.821Z,16.60
2022-10-01T07:27:19.021Z,16.00
2022-10-01T07:29:46.559Z,15.70
2022-10-01T07:32:14.732Z,15.50
2022-10-01T07:34:41.573Z,15.10
2022-10-01T07:37:08.813Z,14.60
2022-10-01T07:39:35.966Z,14.40
2022-10-01T07:42:03.015Z,15.00
2022-10-01T07:44:29.749Z,14.30
2022-10-01T07:46:59.290Z,14.40
2022-10-01T07:49:26.811Z,15.10
2022-10-01T07:51:55.248Z,13.20
2022-10-01T07:54:22.447Z,14.50
2022-10-01T07:56:52.226Z,14.20
2022-10-01T07:59:18.689Z,12.70
2022-10-01T08:01:48.444Z,12.20
2022-10-01T08:04:36.955Z,12.30
2022-10-01T08:07:05.012Z,11.50
2022-10-01T08:09:31.857Z,10.60
2022-10-01T08:11:58.802Z,11.60
2022-10-01T08:14:26.164Z,11.20
2022-10-01T08:21:48.022Z,9.20
2022-10-01T08:24:15.473Z,9.00
2022-10-01T08:26:42.618Z,9.20
2022-10-01T08:29:11.644Z,9.00
2022-10-01T08:31:41.660Z,9.60
2022-10-01T08:34:08.582Z,8.70
2022-10-01T08:36:36.231Z,8.70
2022-10-01T08:39:03.848Z,8.20
2022-10-01T08:41:49.800Z,7.60
2022-10-01T08:44:22.473Z,7.10
2022-10-01T08:46:51.590Z,7.50
2022-10-01T08:49:29.761Z,6.60
2022-10-01T08:54:23.569Z,6.80
2022-10-01T08:56:51.226Z,6.10
2022-10-01T08:59:27.624Z,5.90
2022-10-01T09:01:55.490Z,6.10
2022-10-01T09:04:22.577Z,6.00
2022-10-01T09:06:51.696Z,6.30
2022-10-01T09:09:37.291Z,6.30
2022-10-01T09:12:23.249Z,6.00
2022-10-01T09:14:53.371Z,6.20
2022-10-01T09:17:46.058Z,6.00
2022-10-01T09:20:20.000Z,5.70
2022-10-01T09:22:55.373Z,5.40
2022-10-01T09:25:23.859Z,5.30
2022-10-01T09:27:53.578Z,5.10
2022-10-01T09:30:21.427Z,5.20
2022-10-01T09:32:55.446Z,5.20
2022-10-01T09:35:43.891Z,5.80
2022-10-01T09:38:11.170Z,5.40
2022-10-01T09:40:46.283Z,4.60
2022-10-01T09:43:14.005Z,6.00
2022-10-01T09:45:41.856Z,5.50
2022-10-01T09:48:30.875Z,5.70
2022-10-01T09:51:10.829Z,5.30
2022-10-01T09:53:43.805Z,4.60
2022-10-01T09:56:14.142Z,4.80
2022-10-01T09:58:43.835Z,5.50
2022-10-01T10:01:18.124Z,4.50
2022-10-01T10:03:57.383Z,4.60
2022-10-01T10:06:29.485Z,4.70
2022-10-01T10:09:01.525Z,5.00
2022-10-01T10:11:33.572Z,4.80
2022-10-01T10:14:03.992Z,3.90
2022-10-01T10:16:37.248Z,4.60
2022-10-01T10:19:09.052Z,5.00
2022-10-01T10:21:36.198Z,5.40
2022-10-01T10:24:19.019Z,6.10
2022-10-01T10:26:52.430Z,6.10
2022-10-01T10:29:27.034Z,6.40
2022-10-01T10:31:55.271Z,6.30
2022-10-01T10:34:34.191Z,6.90
2022-10-01T10:37:05.623Z,6.40
2022-10-01T10:39:37.854Z,6.50
2022-10-01T10:42:05.212Z,7.20
2022-10-01T10:44:38.835Z,7.10
2022-10-01T10:47:13.846Z,7.80
2022-10-01T10:49:43.973Z,7.00
2022-10-01T10:52:31.535Z,6.00
2022-10-01T10:55:00.592Z,6.10
2022-10-01T10:57:37.473Z,5.80
2022-10-01T11:00:16.549Z,6.00
2022-10-01T11:03:05.049Z,6.10
2022-10-01T11:05:33.891Z,6.10
2022-10-01T11:08:03.440Z,6.40
2022-10-01T11:10:33.861Z,5.60
2022-10-01T11:13:00.338Z,5.70
2022-10-01T11:15:50.099Z,5.40
2022-10-01T11:18:19.367Z,6.30
2022-10-01T11:20:53.198Z,5.80
2022-10-01T11:23:19.508Z,5.70
2022-10-01T11:26:05.503Z,5.90
2022-10-01T11:28:32.504Z,5.80
2022-10-01T11:31:12.722Z,6.10
2022-10-01T11:33:59.686Z,6.10
2022-10-01T11:36:30.240Z,6.10
2022-10-01T11:39:09.981Z,5.20
2022-10-01T11:41:40.515Z,5.40
2022-10-01T11:44:17.799Z,5.80
2022-10-01T11:49:30.468Z,4.80
2022-10-01T11:52:08.737Z,4.80
2022-10-01T11:54:38.245Z,4.40
2022-10-01T11:57:25.972Z,4.50
2022-10-01T11:59:55.074Z,4.30
2022-10-01T12:02:35.111Z,4.20
2022-10-01T12:05:07.113Z,4.30
2022-10-01T12:07:39.763Z,4.30
2022-10-01T12:10:18.804Z,4.70
2022-10-01T12:12:45.729Z,4.20
2022-10-01T12:15:20.871Z,4.30
2022-10-01T12:17:55.185Z,4.20
2022-10-01T12:21:00.834Z,4.00
2022-10-01T12:23:34.545Z,4.00
2022-10-01T12:26:23.437Z,3.70
2022-10-01T12:28:59.948Z,3.60
2022-10-01T12:31:27.204Z,3.70
2022-10-01T12:34:03.074Z,3.70
2022-10-01T12:36:36.896Z,3.50
2022-10-01T12:39:03.760Z,3.30
2022-10-01T12:41:50.301Z,3.80
2022-10-01T12:44:20.846Z,4.20
2022-10-01T12:47:03.794Z,4.10
2022-10-01T12:49:36.425Z,3.60
2022-10-01T12:52:18.554Z,3.10
2022-10-01T12:54:45.289Z,3.50
2022-10-01T12:57:18.067Z,3.10
2022-10-01T12:59:58.202Z,5.90
2022-10-01T13:02:27.622Z,9.50
2022-10-01T13:04:57.138Z,3.70
2022-10-01T13:07:23.868Z,3.40
2022-10-01T13:09:59.516Z,3.60
2022-10-01T13:12:36.541Z,3.60
2022-10-01T13:15:05.085Z,3.00
2022-10-01T13:17:41.559Z,2.70
2022-10-01T13:20:16.284Z,2.70
2022-10-01T13:22:50.487Z,2.70
2022-10-01T13:25:35.792Z,2.80
2022-10-01T13:28:14.449Z,2.60
2022-10-01T13:31:00.873Z,2.50
2022-10-01T13:38:30.320Z,2.50
2022-10-01T13:40:59.458Z,3.00
2022-10-01T13:43:26.496Z,2.90
2022-10-01T13:45:54.041Z,3.20
2022-10-01T13:48:23.115Z,3.10
2022-10-01T13:51:03.377Z,2.80
2022-10-01T13:53:32.284Z,3.00
2022-10-01T13:55:59.212Z,2.80
2022-10-01T13:58:28.898Z,2.90
2022-10-01T14:00:56.367Z,3.10
2022-10-01T14:05:55.890Z,3.00
2022-10-01T14:08:28.061Z,2.80
2022-10-01T14:11:21.830Z,2.80
2022-10-01T14:14:07.432Z,2.50
2022-10-01T14:16:41.409Z,3.00
2022-10-01T14:19:08.779Z,4.40
2022-10-01T14:24:04.710Z,3.00
2022-10-01T14:26:42.612Z,3.00
2022-10-01T14:29:12.032Z,2.90
2022-10-01T14:31:50.149Z,2.90
2022-10-01T14:34:27.819Z,3.10
2022-10-01T14:36:56.136Z,3.70
2022-10-01T14:39:26.837Z,3.30
2022-10-01T14:41:57.355Z,3.30
2022-10-01T14:44:28.496Z,3.30
2022-10-01T14:46:59.525Z,3.50
2022-10-01T14:49:27.509Z,4.10
2022-10-01T14:52:09.292Z,2.40
2022-10-01T14:54:59.294Z,3.10
2022-10-01T14:57:30.740Z,3.20
2022-10-01T14:59:58.705Z,2.40
2022-10-01T15:02:26.053Z,2.90
2022-10-01T15:04:58.168Z,2.80
2022-10-01T15:07:27.421Z,3.20
2022-10-01T15:10:05.079Z,2.50
2022-10-01T15:12:32.676Z,2.50
2022-10-01T15:15:02.216Z,2.30
2022-10-01T15:17:30.781Z,2.30
2022-10-01T15:19:58.016Z,2.20
2022-10-01T15:22:27.832Z,2.50
2022-10-01T15:24:58.051Z,2.80
2022-10-01T15:27:25.505Z,2.20
2022-10-01T15:29:56.216Z,2.30
2022-10-01T15:32:23.806Z,2.60
2022-10-01T15:34:55.244Z,2.50
2022-10-01T15:37:27.993Z,2.40
2022-10-01T15:39:56.404Z,2.30
2022-10-01T15:42:25.495Z,2.10
2022-10-01T15:45:10.485Z,2.90
2022-10-01T15:47:37.208Z,2.60
2022-10-01T15:50:10.800Z,1.90
2022-10-01T15:52:51.083Z,1.70
2022-10-01T15:55:21.079Z,1.70
2022-10-01T15:57:51.912Z,1.80
2022-10-01T16:00:34.390Z,1.60
2022-10-01T16:03:01.918Z,1.70
2022-10-01T16:05:33.993Z,1.40
2022-10-01T16:08:00.783Z,1.60
2022-10-01T16:10:35.934Z,1.80
2022-10-01T16:13:21.806Z,1.40
2022-10-01T16:16:07.525Z,1.60
2022-10-01T16:18:36.795Z,1.60
2022-10-01T16:21:05.269Z,1.50
2022-10-01T16:23:36.616Z,1.80
2022-10-01T16:26:06.857Z,1.60
2022-10-01T16:28:34.298Z,1.30
2022-10-01T16:31:03.160Z,1.70
2022-10-01T16:33:29.616Z,1.70
2022-10-01T16:36:07.590Z,2.70
2022-10-01T16:38:33.948Z,1.50
2022-10-01T16:41:02.248Z,1.40
2022-10-01T16:43:30.567Z,1.40
2022-10-01T16:45:58.466Z,1.50
2022-10-01T16:48:25.539Z,1.30
2022-10-01T16:50:54.863Z,1.40
2022-10-01T16:53:26.575Z,1.60
2022-10-01T16:55:56.077Z,1.70
2022-10-01T16:58:23.945Z,1.60
2022-10-01T17:00:50.985Z,1.80
2022-10-01T17:03:18.959Z,1.90
2022-10-01T17:05:46.621Z,1.50
2022-10-01T17:08:14.931Z,1.70
2022-10-01T17:10:46.988Z,1.60
2022-10-01T17:13:14.090Z,2.00
2022-10-01T17:15:40.637Z,1.60
2022-10-01T17:18:09.330Z,1.90
2022-10-01T17:20:39.684Z,1.80
2022-10-01T17:23:06.497Z,1.50
2022-10-01T17:25:35.713Z,1.60
2022-10-01T17:28:03.936Z,1.90
2022-10-01T17:30:32.450Z,2.00
2022-10-01T17:32:59.830Z,1.80
2022-10-01T17:35:29.756Z,1.90
2022-10-01T17:37:59.319Z,1.90
2022-10-01T17:40:27.088Z,2.20
2022-10-01T17:42:53.826Z,2.20
2022-10-01T17:45:20.378Z,2.00
2022-10-01T17:47:48.035Z,2.30
2022-10-01T17:50:15.586Z,2.00
2022-10-01T17:52:42.629Z,2.00
2022-10-01T17:55:11.828Z,2.20
2022-10-01T17:57:40.011Z,2.40
2022-10-01T18:00:07.658Z,2.40
2022-10-01T18:02:42.121Z,2.70
2022-10-01T18:05:11.893Z,2.80
2022-10-01T18:07:38.513Z,3.00
2022-10-01T18:10:06.805Z,3.60
2022-10-01T18:12:33.744Z,4.10
2022-10-01T18:15:01.202Z,4.80
2022-10-01T18:19:57.967Z,4.60
2022-10-01T18:22:26.751Z,4.20
2022-10-01T18:24:54.427Z,4.20
2022-10-01T18:27:22.196Z,4.00
2022-10-01T18:29:51.676Z,3.40
2022-10-01T18:32:25.622Z,3.50
2022-10-01T18:34:58.577Z,4.00
2022-10-01T18:37:40.228Z,4.20
2022-10-01T18:40:10.274Z,4.40
2022-10-01T18:42:42.543Z,4.50
2022-10-01T18:45:18.502Z,4.40
2022-10-01T18:48:06.591Z,3.60
2022-10-01T18:53:00.767Z,3.00
2022-10-01T18:55:52.778Z,3.00
2022-10-01T18:58:25.141Z,2.60
2022-10-01T19:00:52.864Z,3.10
2022-10-01T19:03:46.366Z,2.90
2022-10-01T19:06:22.206Z,3.20
2022-10-01T19:09:11.591Z,3.40
2022-10-01T19:11:38.023Z,3.30
2022-10-01T19:14:23.727Z,3.40
2022-10-01T19:17:09.599Z,2.90
2022-10-01T19:19:54.770Z,3.10
2022-10-01T19:22:22.024Z,3.30
2022-10-01T19:24:58.281Z,3.30
2022-10-01T19:27:42.414Z,3.10
2022-10-01T19:30:15.218Z,2.80
2022-10-01T19:32:53.127Z,3.80
2022-10-01T19:35:21.601Z,3.20
2022-10-01T19:38:11.484Z,3.30
2022-10-01T19:41:14.564Z,3.40
2022-10-01T19:43:47.251Z,3.80
2022-10-01T19:46:16.066Z,3.50
2022-10-01T19:48:55.061Z,4.00
2022-10-01T19:51:24.640Z,3.30
2022-10-01T19:53:59.600Z,3.60
2022-10-01T19:56:30.949Z,3.60
2022-10-01T19:59:06.167Z,3.20
2022-10-01T20:01:44.442Z,3.60
2022-10-01T20:04:14.202Z,3.50
2022-10-01T20:06:43.708Z,3.90
2022-10-01T20:09:10.343Z,3.70
2022-10-01T20:11:47.148Z,4.10
2022-10-01T20:28:04.137Z,4.00
2022-10-01T20:30:37.357Z,4.00
2022-10-01T20:33:24.375Z,3.80
2022-10-01T20:36:18.559Z,3.80
2022-10-01T20:38:52.875Z,4.10
2022-10-01T20:41:22.234Z,3.90
2022-10-01T20:43:55.991Z,3.50
2022-10-01T20:46:32.692Z,4.00
2022-10-01T20:49:05.638Z,3.70
2022-10-01T20:51:33.501Z,4.00
2022-10-01T20:54:12.224Z,4.00
2022-10-01T20:57:00.264Z,4.10
2022-10-01T20:59:32.848Z,3.90
2022-10-01T21:02:16.105Z,4.00
2022-10-01T21:04:49.225Z,4.20
2022-10-01T21:07:36.627Z,3.70
2022-10-01T21:10:09.970Z,4.10
2022-10-01T21:12:39.583Z,4.00
2022-10-01T21:15:12.056Z,4.10
2022-10-01T21:17:56.820Z,4.00
2022-10-01T21:20:24.580Z,4.10
2022-10-01T21:23:10.879Z,3.90
2022-10-01T21:25:38.955Z,3.90
2022-10-01T21:28:11.656Z,3.60
2022-10-01T21:30:53.321Z,3.60
2022-10-01T21:33:28.033Z,3.80
2022-10-01T21:36:03.261Z,3.80
2022-10-01T21:38:44.571Z,3.70
2022-10-01T21:41:20.731Z,3.80
2022-10-01T21:44:01.087Z,3.80
2022-10-01T21:46:30.792Z,3.70
2022-10-01T21:49:02.865Z,3.50
2022-10-01T21:51:49.257Z,3.80
2022-10-01T21:54:17.430Z,3.40
2022-10-01T21:57:07.876Z,3.60
2022-10-01T21:59:54.634Z,3.80
2022-10-01T22:02:30.822Z,4.00
2022-10-01T22:05:23.548Z,3.50
2022-10-01T22:07:56.915Z,3.20
2022-10-01T22:10:28.098Z,3.20
2022-10-01T22:12:58.874Z,3.20
2022-10-01T22:15:35.693Z,2.90
2022-10-01T22:18:05.913Z,3.00
2022-10-01T22:20:35.120Z,2.80
2022-10-01T22:23:10.274Z,2.70
2022-10-01T22:25:44.970Z,2.70
2022-10-01T22:28:21.235Z,2.30
2022-10-01T22:30:51.161Z,2.50
2022-10-01T22:33:21.268Z,2.70
2022-10-01T22:35:52.755Z,2.60
2022-10-01T22:38:39.329Z,2.40
2022-10-01T22:41:13.590Z,2.30
2022-10-01T22:43:43.257Z,2.30
2022-10-01T22:46:21.351Z,2.30
2022-10-01T22:49:12.300Z,2.40
2022-10-01T22:51:50.190Z,2.50
2022-10-01T22:54:22.408Z,2.70
2022-10-01T22:56:59.105Z,2.30
2022-10-01T22:59:46.217Z,2.60
2022-10-01T23:02:23.783Z,2.70
2022-10-01T23:04:55.553Z,2.60
2022-10-01T23:07:33.779Z,2.50
2022-10-01T23:10:09.744Z,2.40
2022-10-01T23:12:44.874Z,2.60
2022-10-01T23:15:36.288Z,2.30
2022-10-01T23:18:23.239Z,2.60
2022-10-01T23:23:27.541Z,2.50
2022-10-01T23:26:04.614Z,2.50
2022-10-01T23:28:32.692Z,2.50
2022-10-01T23:31:01.386Z,2.50
2022-10-01T23:33:29.969Z,2.60
2022-10-01T23:36:21.956Z,2.60
2022-10-01T23:39:13.097Z,2.10
2022-10-01T23:41:48.794Z,2.60
2022-10-01T23:44:35.540Z,2.40
2022-10-01T23:47:06.805Z,2.60
2022-10-01T23:49:38.056Z,3.30
2022-10-01T23:52:10.007Z,2.60
2022-10-01T23:54:51.900Z,3.30
2022-10-01T23:57:22.900Z,3.10
2022-10-01T23:59:51.543Z,2.90
